sensor_id;sensor_type;location;lat;lon;timestamp;pressure;altitude;pressure_sealevel;temperature
77412;BMP280;66484;49.968;19.140;2023-11-19T00:00:46;98356.25;;;0.76
77412;BMP280;66484;49.968;19.140;2023-11-19T00:03:12;98349.78;;;0.87
77412;BMP280;66484;49.968;19.140;2023-11-19T00:05:39;98346.81;;;0.82
77412;BMP280;66484;49.968;19.140;2023-11-19T00:08:04;98346.44;;;0.80
77412;BMP280;66484;49.968;19.140;2023-11-19T00:10:31;98345.28;;;0.81
77412;BMP280;66484;49.968;19.140;2023-11-19T00:12:57;98354.38;;;0.80
77412;BMP280;66484;49.968;19.140;2023-11-19T00:15:23;98343.84;;;0.66
77412;BMP280;66484;49.968;19.140;2023-11-19T00:17:49;98342.38;;;0.65
77412;BMP280;66484;49.968;19.140;2023-11-19T00:20:17;98341.63;;;0.61
77412;BMP280;66484;49.968;19.140;2023-11-19T00:22:43;98340.50;;;0.55
77412;BMP280;66484;49.968;19.140;2023-11-19T00:25:09;98334.81;;;0.67
77412;BMP280;66484;49.968;19.140;2023-11-19T00:27:35;98329.81;;;0.90
77412;BMP280;66484;49.968;19.140;2023-11-19T00:30:03;98329.84;;;0.79
77412;BMP280;66484;49.968;19.140;2023-11-19T00:32:30;98322.72;;;0.76
77412;BMP280;66484;49.968;19.140;2023-11-19T00:34:56;98304.59;;;0.78
77412;BMP280;66484;49.968;19.140;2023-11-19T00:37:22;98316.44;;;0.53
77412;BMP280;66484;49.968;19.140;2023-11-19T00:39:47;98316.47;;;0.46
77412;BMP280;66484;49.968;19.140;2023-11-19T00:42:13;98313.78;;;0.53
77412;BMP280;66484;49.968;19.140;2023-11-19T00:44:39;98316.81;;;0.52
77412;BMP280;66484;49.968;19.140;2023-11-19T00:47:04;98323.56;;;0.56
77412;BMP280;66484;49.968;19.140;2023-11-19T00:49:31;98322.78;;;0.62
77412;BMP280;66484;49.968;19.140;2023-11-19T00:51:58;98326.13;;;0.70
77412;BMP280;66484;49.968;19.140;2023-11-19T00:54:24;98322.06;;;0.58
77412;BMP280;66484;49.968;19.140;2023-11-19T00:56:52;98318.63;;;0.65
77412;BMP280;66484;49.968;19.140;2023-11-19T00:59:19;98318.22;;;0.73
77412;BMP280;66484;49.968;19.140;2023-11-19T01:01:45;98319.63;;;0.88
77412;BMP280;66484;49.968;19.140;2023-11-19T01:04:10;98305.28;;;0.93
77412;BMP280;66484;49.968;19.140;2023-11-19T01:06:36;98301.50;;;0.94
77412;BMP280;66484;49.968;19.140;2023-11-19T01:09:02;98302.59;;;1.00
77412;BMP280;66484;49.968;19.140;2023-11-19T01:11:28;98303.38;;;0.97
77412;BMP280;66484;49.968;19.140;2023-11-19T01:13:54;98309.78;;;0.96
77412;BMP280;66484;49.968;19.140;2023-11-19T01:16:20;98310.59;;;0.82
77412;BMP280;66484;49.968;19.140;2023-11-19T01:18:49;98322.00;;;0.69
77412;BMP280;66484;49.968;19.140;2023-11-19T01:21:15;98313.66;;;0.77
77412;BMP280;66484;49.968;19.140;2023-11-19T01:23:41;98307.22;;;0.82
77412;BMP280;66484;49.968;19.140;2023-11-19T01:26:12;98309.22;;;0.67
77412;BMP280;66484;49.968;19.140;2023-11-19T01:28:39;98305.16;;;0.52
77412;BMP280;66484;49.968;19.140;2023-11-19T01:31:05;98305.44;;;0.65
77412;BMP280;66484;49.968;19.140;2023-11-19T01:33:31;98297.50;;;0.68
77412;BMP280;66484;49.968;19.140;2023-11-19T01:35:56;98306.22;;;0.55
77412;BMP280;66484;49.968;19.140;2023-11-19T01:38:24;98292.31;;;0.58
77412;BMP280;66484;49.968;19.140;2023-11-19T01:40:50;98273.72;;;0.75
77412;BMP280;66484;49.968;19.140;2023-11-19T01:43:51;98264.25;;;0.85
77412;BMP280;66484;49.968;19.140;2023-11-19T01:46:17;98268.47;;;0.72
77412;BMP280;66484;49.968;19.140;2023-11-19T01:48:45;98269.66;;;0.64
77412;BMP280;66484;49.968;19.140;2023-11-19T01:51:12;98272.44;;;0.36
77412;BMP280;66484;49.968;19.140;2023-11-19T01:53:39;98255.94;;;0.22
77412;BMP280;66484;49.968;19.140;2023-11-19T01:56:09;98234.78;;;0.36
77412;BMP280;66484;49.968;19.140;2023-11-19T01:58:38;98235.25;;;0.20
77412;BMP280;66484;49.968;19.140;2023-11-19T02:01:05;98233.25;;;0.42
77412;BMP280;66484;49.968;19.140;2023-11-19T02:03:32;98232.53;;;0.34
77412;BMP280;66484;49.968;19.140;2023-11-19T02:06:02;98220.53;;;0.26
77412;BMP280;66484;49.968;19.140;2023-11-19T02:08:29;98221.25;;;0.34
77412;BMP280;66484;49.968;19.140;2023-11-19T02:10:54;98219.00;;;0.32
77412;BMP280;66484;49.968;19.140;2023-11-19T02:13:26;98203.19;;;0.29
77412;BMP280;66484;49.968;19.140;2023-11-19T02:15:54;98200.97;;;0.20
77412;BMP280;66484;49.968;19.140;2023-11-19T02:18:24;98194.94;;;0.27
77412;BMP280;66484;49.968;19.140;2023-11-19T02:20:56;98194.19;;;0.26
77412;BMP280;66484;49.968;19.140;2023-11-19T02:23:22;98183.75;;;0.63
77412;BMP280;66484;49.968;19.140;2023-11-19T02:28:39;98167.69;;;0.44
77412;BMP280;66484;49.968;19.140;2023-11-19T02:31:05;98151.19;;;0.36
77412;BMP280;66484;49.968;19.140;2023-11-19T02:33:35;98150.75;;;0.41
77412;BMP280;66484;49.968;19.140;2023-11-19T02:36:02;98133.75;;;0.49
77412;BMP280;66484;49.968;19.140;2023-11-19T02:38:29;98130.81;;;0.40
77412;BMP280;66484;49.968;19.140;2023-11-19T02:40:56;98129.72;;;0.34
77412;BMP280;66484;49.968;19.140;2023-11-19T02:43:22;98121.88;;;0.27
77412;BMP280;66484;49.968;19.140;2023-11-19T02:45:48;98126.44;;;0.16
77412;BMP280;66484;49.968;19.140;2023-11-19T02:48:13;98115.25;;;0.02
77412;BMP280;66484;49.968;19.140;2023-11-19T02:50:41;98115.41;;;0.39
77412;BMP280;66484;49.968;19.140;2023-11-19T02:53:07;98106.00;;;0.34
77412;BMP280;66484;49.968;19.140;2023-11-19T02:55:32;98101.69;;;0.03
77412;BMP280;66484;49.968;19.140;2023-11-19T02:58:03;98105.50;;;-0.01
77412;BMP280;66484;49.968;19.140;2023-11-19T03:00:34;98094.78;;;0.23
77412;BMP280;66484;49.968;19.140;2023-11-19T03:03:08;98103.16;;;0.11
77412;BMP280;66484;49.968;19.140;2023-11-19T03:05:46;98083.31;;;-0.03
77412;BMP280;66484;49.968;19.140;2023-11-19T03:08:12;98067.16;;;-0.09
77412;BMP280;66484;49.968;19.140;2023-11-19T03:10:39;98066.38;;;-0.06
77412;BMP280;66484;49.968;19.140;2023-11-19T03:13:04;98074.22;;;0.04
77412;BMP280;66484;49.968;19.140;2023-11-19T03:15:30;98079.16;;;-0.04
77412;BMP280;66484;49.968;19.140;2023-11-19T03:17:55;98087.81;;;-0.01
77412;BMP280;66484;49.968;19.140;2023-11-19T03:20:21;98092.72;;;-0.02
77412;BMP280;66484;49.968;19.140;2023-11-19T03:22:49;98085.53;;;0.01
77412;BMP280;66484;49.968;19.140;2023-11-19T03:25:16;98076.81;;;0.11
77412;BMP280;66484;49.968;19.140;2023-11-19T03:27:42;98069.94;;;0.24
77412;BMP280;66484;49.968;19.140;2023-11-19T03:30:09;98054.09;;;0.28
77412;BMP280;66484;49.968;19.140;2023-11-19T03:32:37;98034.63;;;0.55
77412;BMP280;66484;49.968;19.140;2023-11-19T03:35:04;98037.97;;;0.62
77412;BMP280;66484;49.968;19.140;2023-11-19T03:37:32;98040.84;;;0.75
77412;BMP280;66484;49.968;19.140;2023-11-19T03:39:58;98043.31;;;0.52
77412;BMP280;66484;49.968;19.140;2023-11-19T03:42:28;98038.63;;;0.70
77412;BMP280;66484;49.968;19.140;2023-11-19T03:44:54;98031.81;;;0.76
77412;BMP280;66484;49.968;19.140;2023-11-19T03:47:20;98048.34;;;0.80
77412;BMP280;66484;49.968;19.140;2023-11-19T03:49:49;98040.06;;;0.78
77412;BMP280;66484;49.968;19.140;2023-11-19T03:52:15;98021.72;;;1.01
77412;BMP280;66484;49.968;19.140;2023-11-19T03:54:41;98014.31;;;0.89
77412;BMP280;66484;49.968;19.140;2023-11-19T03:57:06;98009.28;;;0.68
77412;BMP280;66484;49.968;19.140;2023-11-19T03:59:32;98005.44;;;0.76
77412;BMP280;66484;49.968;19.140;2023-11-19T04:01:59;98003.25;;;0.67
77412;BMP280;66484;49.968;19.140;2023-11-19T04:04:26;97995.38;;;0.64
77412;BMP280;66484;49.968;19.140;2023-11-19T04:06:53;97987.47;;;0.64
77412;BMP280;66484;49.968;19.140;2023-11-19T04:09:18;97984.50;;;0.58
77412;BMP280;66484;49.968;19.140;2023-11-19T04:11:44;97983.16;;;0.77
77412;BMP280;66484;49.968;19.140;2023-11-19T04:14:12;97967.00;;;0.75
77412;BMP280;66484;49.968;19.140;2023-11-19T04:16:38;97980.69;;;0.63
77412;BMP280;66484;49.968;19.140;2023-11-19T04:19:04;97956.19;;;0.96
77412;BMP280;66484;49.968;19.140;2023-11-19T04:21:29;97962.16;;;1.00
77412;BMP280;66484;49.968;19.140;2023-11-19T04:23:55;97978.28;;;0.75
77412;BMP280;66484;49.968;19.140;2023-11-19T04:26:21;97978.28;;;0.75
77412;BMP280;66484;49.968;19.140;2023-11-19T04:28:46;97983.78;;;0.54
77412;BMP280;66484;49.968;19.140;2023-11-19T04:31:15;97970.38;;;0.75
77412;BMP280;66484;49.968;19.140;2023-11-19T04:33:42;97967.06;;;0.68
77412;BMP280;66484;49.968;19.140;2023-11-19T04:36:08;97968.00;;;0.51
77412;BMP280;66484;49.968;19.140;2023-11-19T04:38:33;97957.47;;;0.48
77412;BMP280;66484;49.968;19.140;2023-11-19T04:41:00;97958.41;;;0.31
77412;BMP280;66484;49.968;19.140;2023-11-19T04:43:25;97959.72;;;0.49
77412;BMP280;66484;49.968;19.140;2023-11-19T04:45:51;97952.59;;;0.46
77412;BMP280;66484;49.968;19.140;2023-11-19T04:48:17;97952.03;;;0.65
77412;BMP280;66484;49.968;19.140;2023-11-19T04:50:42;97950.44;;;0.71
77412;BMP280;66484;49.968;19.140;2023-11-19T04:53:08;97941.19;;;0.56
77412;BMP280;66484;49.968;19.140;2023-11-19T04:55:33;97935.91;;;0.56
77412;BMP280;66484;49.968;19.140;2023-11-19T04:57:59;97945.50;;;0.43
77412;BMP280;66484;49.968;19.140;2023-11-19T05:00:24;97945.13;;;0.41
77412;BMP280;66484;49.968;19.140;2023-11-19T05:02:49;97943.63;;;0.40
77412;BMP280;66484;49.968;19.140;2023-11-19T05:05:15;97938.72;;;0.42
77412;BMP280;66484;49.968;19.140;2023-11-19T05:07:41;97947.69;;;0.48
77412;BMP280;66484;49.968;19.140;2023-11-19T05:10:08;97928.09;;;0.49
77412;BMP280;66484;49.968;19.140;2023-11-19T05:12:33;97928.78;;;0.56
77412;BMP280;66484;49.968;19.140;2023-11-19T05:14:59;97935.91;;;0.59
77412;BMP280;66484;49.968;19.140;2023-11-19T05:17:25;97930.56;;;0.63
77412;BMP280;66484;49.968;19.140;2023-11-19T05:19:51;97936.53;;;0.70
77412;BMP280;66484;49.968;19.140;2023-11-19T05:22:17;97942.88;;;0.73
77412;BMP280;66484;49.968;19.140;2023-11-19T05:24:42;97933.31;;;0.86
77412;BMP280;66484;49.968;19.140;2023-11-19T05:27:07;97922.22;;;0.98
77412;BMP280;66484;49.968;19.140;2023-11-19T05:29:33;97917.41;;;0.93
77412;BMP280;66484;49.968;19.140;2023-11-19T05:31:59;97915.28;;;1.10
77412;BMP280;66484;49.968;19.140;2023-11-19T05:34:24;97901.63;;;1.15
77412;BMP280;66484;49.968;19.140;2023-11-19T05:36:50;97897.31;;;1.02
77412;BMP280;66484;49.968;19.140;2023-11-19T05:39:16;97895.81;;;0.98
77412;BMP280;66484;49.968;19.140;2023-11-19T05:41:42;97909.78;;;0.98
77412;BMP280;66484;49.968;19.140;2023-11-19T05:44:08;97893.50;;;1.03
77412;BMP280;66484;49.968;19.140;2023-11-19T05:46:33;97894.16;;;1.10
77412;BMP280;66484;49.968;19.140;2023-11-19T05:49:05;97893.47;;;1.06
77412;BMP280;66484;49.968;19.140;2023-11-19T05:51:30;97890.47;;;1.05
77412;BMP280;66484;49.968;19.140;2023-11-19T05:53:56;97876.03;;;1.12
77412;BMP280;66484;49.968;19.140;2023-11-19T05:56:22;97876.13;;;1.05
77412;BMP280;66484;49.968;19.140;2023-11-19T05:58:48;97885.25;;;1.01
77412;BMP280;66484;49.968;19.140;2023-11-19T06:01:14;97898.63;;;1.13
77412;BMP280;66484;49.968;19.140;2023-11-19T06:03:40;97903.63;;;1.34
77412;BMP280;66484;49.968;19.140;2023-11-19T06:06:06;97902.72;;;1.44
77412;BMP280;66484;49.968;19.140;2023-11-19T06:08:31;97911.72;;;1.47
77412;BMP280;66484;49.968;19.140;2023-11-19T06:10:57;97899.50;;;1.56
77412;BMP280;66484;49.968;19.140;2023-11-19T06:13:23;97898.16;;;1.71
77412;BMP280;66484;49.968;19.140;2023-11-19T06:15:49;97893.66;;;1.91
77412;BMP280;66484;49.968;19.140;2023-11-19T06:18:16;97903.31;;;2.01
77412;BMP280;66484;49.968;19.140;2023-11-19T06:20:41;97900.19;;;1.83
77412;BMP280;66484;49.968;19.140;2023-11-19T06:23:07;97899.88;;;1.81
77412;BMP280;66484;49.968;19.140;2023-11-19T06:25:32;97882.16;;;2.01
77412;BMP280;66484;49.968;19.140;2023-11-19T06:27:58;97878.94;;;2.12
77412;BMP280;66484;49.968;19.140;2023-11-19T06:30:24;97867.75;;;2.05
77412;BMP280;66484;49.968;19.140;2023-11-19T06:32:51;97869.91;;;2.10
77412;BMP280;66484;49.968;19.140;2023-11-19T06:35:16;97860.00;;;2.14
77412;BMP280;66484;49.968;19.140;2023-11-19T06:37:42;97840.69;;;2.36
77412;BMP280;66484;49.968;19.140;2023-11-19T06:40:08;97836.75;;;2.44
77412;BMP280;66484;49.968;19.140;2023-11-19T06:42:35;97818.72;;;2.94
77412;BMP280;66484;49.968;19.140;2023-11-19T06:45:01;97816.59;;;2.69
77412;BMP280;66484;49.968;19.140;2023-11-19T06:47:27;97809.56;;;2.79
77412;BMP280;66484;49.968;19.140;2023-11-19T06:49:53;97817.59;;;3.26
77412;BMP280;66484;49.968;19.140;2023-11-19T06:52:19;97808.16;;;3.10
77412;BMP280;66484;49.968;19.140;2023-11-19T06:54:44;97820.03;;;3.17
77412;BMP280;66484;49.968;19.140;2023-11-19T06:57:13;97805.06;;;2.95
77412;BMP280;66484;49.968;19.140;2023-11-19T06:59:39;97816.81;;;2.94
77412;BMP280;66484;49.968;19.140;2023-11-19T07:02:04;97820.03;;;3.17
77412;BMP280;66484;49.968;19.140;2023-11-19T07:04:31;97811.28;;;3.36
77412;BMP280;66484;49.968;19.140;2023-11-19T07:06:56;97815.59;;;3.46
77412;BMP280;66484;49.968;19.140;2023-11-19T07:09:22;97805.66;;;3.50
77412;BMP280;66484;49.968;19.140;2023-11-19T07:11:48;97795.41;;;3.52
77412;BMP280;66484;49.968;19.140;2023-11-19T07:14:16;97791.66;;;3.50
77412;BMP280;66484;49.968;19.140;2023-11-19T07:16:42;97790.91;;;3.65
77412;BMP280;66484;49.968;19.140;2023-11-19T07:19:08;97804.84;;;3.97
77412;BMP280;66484;49.968;19.140;2023-11-19T07:21:33;97818.03;;;3.85
77412;BMP280;66484;49.968;19.140;2023-11-19T07:23:59;97813.28;;;4.21
77412;BMP280;66484;49.968;19.140;2023-11-19T07:26:25;97800.41;;;4.35
77412;BMP280;66484;49.968;19.140;2023-11-19T07:28:50;97797.81;;;3.91
77412;BMP280;66484;49.968;19.140;2023-11-19T07:31:16;97804.44;;;3.99
77412;BMP280;66484;49.968;19.140;2023-11-19T07:33:45;97803.94;;;3.88
77412;BMP280;66484;49.968;19.140;2023-11-19T07:36:11;97806.13;;;4.05
77412;BMP280;66484;49.968;19.140;2023-11-19T07:38:37;97804.06;;;4.13
77412;BMP280;66484;49.968;19.140;2023-11-19T07:41:04;97798.66;;;4.28
77412;BMP280;66484;49.968;19.140;2023-11-19T07:43:30;97801.44;;;3.97
77412;BMP280;66484;49.968;19.140;2023-11-19T07:45:56;97794.16;;;3.85
77412;BMP280;66484;49.968;19.140;2023-11-19T07:48:24;97797.38;;;3.92
77412;BMP280;66484;49.968;19.140;2023-11-19T07:50:50;97780.38;;;4.06
77412;BMP280;66484;49.968;19.140;2023-11-19T07:53:19;97780.53;;;4.27
77412;BMP280;66484;49.968;19.140;2023-11-19T07:55:45;97775.44;;;4.32
77412;BMP280;66484;49.968;19.140;2023-11-19T07:58:11;97771.94;;;4.35
77412;BMP280;66484;49.968;19.140;2023-11-19T08:00:40;97756.25;;;4.41
77412;BMP280;66484;49.968;19.140;2023-11-19T08:03:05;97745.34;;;4.64
77412;BMP280;66484;49.968;19.140;2023-11-19T08:05:31;97735.56;;;4.48
77412;BMP280;66484;49.968;19.140;2023-11-19T08:07:57;97726.97;;;4.57
77412;BMP280;66484;49.968;19.140;2023-11-19T08:10:23;97714.75;;;4.96
77412;BMP280;66484;49.968;19.140;2023-11-19T08:12:48;97716.09;;;5.26
77412;BMP280;66484;49.968;19.140;2023-11-19T08:15:14;97707.28;;;5.50
77412;BMP280;66484;49.968;19.140;2023-11-19T08:17:40;97695.91;;;5.49
77412;BMP280;66484;49.968;19.140;2023-11-19T08:20:06;97691.28;;;5.75
77412;BMP280;66484;49.968;19.140;2023-11-19T08:22:37;97702.88;;;5.68
77412;BMP280;66484;49.968;19.140;2023-11-19T08:25:07;97700.00;;;5.75
77412;BMP280;66484;49.968;19.140;2023-11-19T08:27:33;97694.47;;;5.91
77412;BMP280;66484;49.968;19.140;2023-11-19T08:29:58;97703.91;;;5.83
77412;BMP280;66484;49.968;19.140;2023-11-19T08:32:25;97705.75;;;5.95
77412;BMP280;66484;49.968;19.140;2023-11-19T08:34:54;97707.59;;;5.85
77412;BMP280;66484;49.968;19.140;2023-11-19T08:37:21;97706.44;;;5.74
77412;BMP280;66484;49.968;19.140;2023-11-19T08:39:51;97695.41;;;5.76
77412;BMP280;66484;49.968;19.140;2023-11-19T08:42:17;97696.34;;;5.82
77412;BMP280;66484;49.968;19.140;2023-11-19T08:44:43;97697.38;;;5.84
77412;BMP280;66484;49.968;19.140;2023-11-19T08:47:17;97695.34;;;5.88
77412;BMP280;66484;49.968;19.140;2023-11-19T08:49:44;97690.28;;;5.81
77412;BMP280;66484;49.968;19.140;2023-11-19T08:52:12;97683.94;;;5.66
77412;BMP280;66484;49.968;19.140;2023-11-19T08:54:42;97675.66;;;5.85
77412;BMP280;66484;49.968;19.140;2023-11-19T08:57:08;97681.34;;;5.96
77412;BMP280;66484;49.968;19.140;2023-11-19T08:59:34;97686.50;;;5.91
77412;BMP280;66484;49.968;19.140;2023-11-19T09:02:00;97683.34;;;5.83
77412;BMP280;66484;49.968;19.140;2023-11-19T09:04:27;97670.78;;;5.84
77412;BMP280;66484;49.968;19.140;2023-11-19T09:06:53;97670.25;;;5.89
77412;BMP280;66484;49.968;19.140;2023-11-19T09:09:20;97676.72;;;5.88
77412;BMP280;66484;49.968;19.140;2023-11-19T09:11:45;97661.41;;;6.22
77412;BMP280;66484;49.968;19.140;2023-11-19T09:14:15;97643.91;;;6.42
77412;BMP280;66484;49.968;19.140;2023-11-19T09:16:41;97640.94;;;6.40
77412;BMP280;66484;49.968;19.140;2023-11-19T09:19:06;97634.94;;;6.58
77412;BMP280;66484;49.968;19.140;2023-11-19T09:21:34;97632.91;;;6.71
77412;BMP280;66484;49.968;19.140;2023-11-19T09:24:03;97618.56;;;6.68
77412;BMP280;66484;49.968;19.140;2023-11-19T09:26:32;97628.00;;;6.60
77412;BMP280;66484;49.968;19.140;2023-11-19T09:28:58;97627.41;;;6.56
77412;BMP280;66484;49.968;19.140;2023-11-19T09:31:24;97628.44;;;6.59
77412;BMP280;66484;49.968;19.140;2023-11-19T09:33:50;97611.69;;;6.58
77412;BMP280;66484;49.968;19.140;2023-11-19T09:36:16;97615.72;;;6.63
77412;BMP280;66484;49.968;19.140;2023-11-19T09:38:45;97611.84;;;6.55
77412;BMP280;66484;49.968;19.140;2023-11-19T09:41:12;97603.53;;;7.10
77412;BMP280;66484;49.968;19.140;2023-11-19T09:43:41;97592.53;;;7.70
77412;BMP280;66484;49.968;19.140;2023-11-19T09:46:20;97585.34;;;8.03
77412;BMP280;66484;49.968;19.140;2023-11-19T09:48:53;97576.94;;;8.37
77412;BMP280;66484;49.968;19.140;2023-11-19T09:51:20;97570.13;;;8.82
77412;BMP280;66484;49.968;19.140;2023-11-19T09:53:46;97573.50;;;8.92
77412;BMP280;66484;49.968;19.140;2023-11-19T09:56:12;97563.72;;;8.89
77412;BMP280;66484;49.968;19.140;2023-11-19T09:58:43;97553.84;;;9.18
77412;BMP280;66484;49.968;19.140;2023-11-19T10:01:09;97551.72;;;9.59
77412;BMP280;66484;49.968;19.140;2023-11-19T10:03:39;97542.28;;;9.50
77412;BMP280;66484;49.968;19.140;2023-11-19T10:06:09;97530.81;;;9.35
77412;BMP280;66484;49.968;19.140;2023-11-19T10:08:38;97529.47;;;9.39
77412;BMP280;66484;49.968;19.140;2023-11-19T10:11:07;97513.78;;;9.32
77412;BMP280;66484;49.968;19.140;2023-11-19T10:13:35;97525.66;;;9.46
77412;BMP280;66484;49.968;19.140;2023-11-19T10:16:12;97514.44;;;9.42
77412;BMP280;66484;49.968;19.140;2023-11-19T10:18:46;97516.72;;;9.49
77412;BMP280;66484;49.968;19.140;2023-11-19T10:21:14;97503.63;;;9.51
77412;BMP280;66484;49.968;19.140;2023-11-19T10:23:52;97479.91;;;9.29
77412;BMP280;66484;49.968;19.140;2023-11-19T10:26:20;97473.66;;;9.32
77412;BMP280;66484;49.968;19.140;2023-11-19T10:28:47;97472.53;;;9.53
77412;BMP280;66484;49.968;19.140;2023-11-19T10:31:17;97468.09;;;9.64
77412;BMP280;66484;49.968;19.140;2023-11-19T10:33:47;97460.25;;;9.75
77412;BMP280;66484;49.968;19.140;2023-11-19T10:36:13;97469.38;;;9.69
77412;BMP280;66484;49.968;19.140;2023-11-19T10:38:55;97460.47;;;10.06
77412;BMP280;66484;49.968;19.140;2023-11-19T10:41:50;97460.38;;;10.15
77412;BMP280;66484;49.968;19.140;2023-11-19T10:44:32;97467.22;;;10.02
77412;BMP280;66484;49.968;19.140;2023-11-19T10:47:01;97449.56;;;10.10
77412;BMP280;66484;49.968;19.140;2023-11-19T10:49:27;97430.28;;;9.28
77412;BMP280;66484;49.968;19.140;2023-11-19T10:51:53;97429.72;;;8.96
77412;BMP280;66484;49.968;19.140;2023-11-19T10:54:22;97436.72;;;8.79
77412;BMP280;66484;49.968;19.140;2023-11-19T10:56:55;97420.94;;;8.66
77412;BMP280;66484;49.968;19.140;2023-11-19T10:59:25;97413.78;;;8.49
77412;BMP280;66484;49.968;19.140;2023-11-19T11:01:53;97423.19;;;8.21
77412;BMP280;66484;49.968;19.140;2023-11-19T11:04:23;97418.25;;;7.96
77412;BMP280;66484;49.968;19.140;2023-11-19T11:06:51;97418.22;;;7.73
77412;BMP280;66484;49.968;19.140;2023-11-19T11:09:17;97420.28;;;7.78
77412;BMP280;66484;49.968;19.140;2023-11-19T11:11:46;97408.47;;;7.70
77412;BMP280;66484;49.968;19.140;2023-11-19T11:14:13;97417.91;;;7.80
77412;BMP280;66484;49.968;19.140;2023-11-19T11:16:46;97413.03;;;7.38
77412;BMP280;66484;49.968;19.140;2023-11-19T11:19:17;97413.47;;;7.36
77412;BMP280;66484;49.968;19.140;2023-11-19T11:21:47;97424.88;;;7.45
77412;BMP280;66484;49.968;19.140;2023-11-19T11:36:27;97402.81;;;6.24
77412;BMP280;66484;49.968;19.140;2023-11-19T11:38:53;97394.22;;;6.11
77412;BMP280;66484;49.968;19.140;2023-11-19T11:41:21;97389.06;;;6.34
77412;BMP280;66484;49.968;19.140;2023-11-19T11:43:51;97393.94;;;6.53
77412;BMP280;66484;49.968;19.140;2023-11-19T11:49:07;97379.47;;;6.19
77412;BMP280;66484;49.968;19.140;2023-11-19T11:54:25;97367.31;;;6.71
77412;BMP280;66484;49.968;19.140;2023-11-19T11:57:07;97366.88;;;6.46
77412;BMP280;66484;49.968;19.140;2023-11-19T12:02:08;97363.19;;;6.26
77412;BMP280;66484;49.968;19.140;2023-11-19T12:04:34;97350.16;;;6.45
77412;BMP280;66484;49.968;19.140;2023-11-19T12:07:13;97355.13;;;6.88
77412;BMP280;66484;49.968;19.140;2023-11-19T12:09:41;97347.38;;;7.08
77412;BMP280;66484;49.968;19.140;2023-11-19T12:12:11;97344.34;;;7.24
77412;BMP280;66484;49.968;19.140;2023-11-19T12:20:08;97319.72;;;7.61
77412;BMP280;66484;49.968;19.140;2023-11-19T12:22:40;97319.38;;;7.12
77412;BMP280;66484;49.968;19.140;2023-11-19T12:25:07;97319.28;;;7.62
77412;BMP280;66484;49.968;19.140;2023-11-19T12:27:34;97308.53;;;7.25
77412;BMP280;66484;49.968;19.140;2023-11-19T12:30:01;97314.59;;;7.25
77412;BMP280;66484;49.968;19.140;2023-11-19T12:32:37;97310.13;;;6.90
77412;BMP280;66484;49.968;19.140;2023-11-19T12:35:02;97301.25;;;6.84
77412;BMP280;66484;49.968;19.140;2023-11-19T12:37:28;97293.31;;;6.75
77412;BMP280;66484;49.968;19.140;2023-11-19T12:39:57;97300.09;;;6.76
77412;BMP280;66484;49.968;19.140;2023-11-19T12:42:35;97290.50;;;6.70
77412;BMP280;66484;49.968;19.140;2023-11-19T12:45:00;97294.97;;;7.05
77412;BMP280;66484;49.968;19.140;2023-11-19T12:47:34;97283.06;;;6.83
77412;BMP280;66484;49.968;19.140;2023-11-19T12:50:02;97276.16;;;6.67
77412;BMP280;66484;49.968;19.140;2023-11-19T12:52:29;97283.47;;;6.90
77412;BMP280;66484;49.968;19.140;2023-11-19T12:54:55;97278.34;;;6.78
77412;BMP280;66484;49.968;19.140;2023-11-19T12:57:20;97282.34;;;6.82
77412;BMP280;66484;49.968;19.140;2023-11-19T12:59:56;97270.13;;;6.99
77412;BMP280;66484;49.968;19.140;2023-11-19T13:02:50;97271.94;;;6.84
77412;BMP280;66484;49.968;19.140;2023-11-19T13:05:33;97276.44;;;6.78
77412;BMP280;66484;49.968;19.140;2023-11-19T13:08:09;97277.72;;;6.83
77412;BMP280;66484;49.968;19.140;2023-11-19T13:10:53;97265.44;;;6.85
77412;BMP280;66484;49.968;19.140;2023-11-19T13:13:19;97251.38;;;6.43
77412;BMP280;66484;49.968;19.140;2023-11-19T13:15:45;97272.09;;;6.39
77412;BMP280;66484;49.968;19.140;2023-11-19T13:18:12;97261.63;;;5.91
77412;BMP280;66484;49.968;19.140;2023-11-19T13:20:38;97274.44;;;6.46
77412;BMP280;66484;49.968;19.140;2023-11-19T13:23:04;97268.56;;;6.16
77412;BMP280;66484;49.968;19.140;2023-11-19T13:25:30;97266.94;;;5.82
77412;BMP280;66484;49.968;19.140;2023-11-19T13:27:57;97264.28;;;5.82
77412;BMP280;66484;49.968;19.140;2023-11-19T13:30:23;97264.00;;;5.98
77412;BMP280;66484;49.968;19.140;2023-11-19T13:32:50;97255.41;;;6.03
77412;BMP280;66484;49.968;19.140;2023-11-19T13:35:16;97244.16;;;6.17
77412;BMP280;66484;49.968;19.140;2023-11-19T13:37:45;97248.78;;;5.81
77412;BMP280;66484;49.968;19.140;2023-11-19T13:40:12;97235.78;;;6.01
77412;BMP280;66484;49.968;19.140;2023-11-19T13:42:44;97240.94;;;5.95
77412;BMP280;66484;49.968;19.140;2023-11-19T13:45:13;97245.81;;;5.97
77412;BMP280;66484;49.968;19.140;2023-11-19T13:47:45;97241.41;;;5.76
77412;BMP280;66484;49.968;19.140;2023-11-19T13:50:13;97244.78;;;5.85
77412;BMP280;66484;49.968;19.140;2023-11-19T13:52:40;97249.38;;;5.76
77412;BMP280;66484;49.968;19.140;2023-11-19T13:55:10;97246.66;;;5.67
77412;BMP280;66484;49.968;19.140;2023-11-19T13:57:37;97244.94;;;5.82
77412;BMP280;66484;49.968;19.140;2023-11-19T14:00:07;97242.88;;;5.86
77412;BMP280;66484;49.968;19.140;2023-11-19T14:02:39;97238.41;;;5.92
77412;BMP280;66484;49.968;19.140;2023-11-19T14:05:05;97228.63;;;5.62
77412;BMP280;66484;49.968;19.140;2023-11-19T14:07:31;97234.44;;;5.79
77412;BMP280;66484;49.968;19.140;2023-11-19T14:09:56;97235.78;;;5.83
77412;BMP280;66484;49.968;19.140;2023-11-19T14:12:21;97222.16;;;5.81
77412;BMP280;66484;49.968;19.140;2023-11-19T14:14:47;97222.75;;;5.85
77412;BMP280;66484;49.968;19.140;2023-11-19T14:17:13;97228.22;;;6.08
77412;BMP280;66484;49.968;19.140;2023-11-19T14:19:40;97227.31;;;6.11
77412;BMP280;66484;49.968;19.140;2023-11-19T14:22:06;97223.63;;;5.91
77412;BMP280;66484;49.968;19.140;2023-11-19T14:24:32;97227.19;;;6.06
77412;BMP280;66484;49.968;19.140;2023-11-19T14:26:57;97234.84;;;6.22
77412;BMP280;66484;49.968;19.140;2023-11-19T14:29:26;97228.50;;;6.19
77412;BMP280;66484;49.968;19.140;2023-11-19T14:31:52;97225.97;;;6.16
77412;BMP280;66484;49.968;19.140;2023-11-19T14:34:21;97219.19;;;6.15
77412;BMP280;66484;49.968;19.140;2023-11-19T14:37:07;97215.59;;;6.27
77412;BMP280;66484;49.968;19.140;2023-11-19T14:39:38;97228.03;;;6.21